Maersk Iowa — KABL — position and weather

sailwx.info

Track history (hours):
 
Tides and Currents Weather Stations Pressure Air Temp Water Temp Dewpoint Dewpoint Depression Visibility Wind Speed Wind Dir Waves Ship Positions

Maersk Iowa

Owner: FARRELL LINES INC, Norfolk, VA. More information available from US FCC via Universal Licensing System and Coast Guard Vessel Documentation Center.

Last reported at 2017-May-23 12:00 UTC. Time now 2017-May-23 18:52 UTC.
Position N 48°12' W 037°30'.

Length 292 m; draft 13 m.

Type: Ship (hazmat cat A). MMSI: 367606000.

Wind from 200 at 13 knots

Barometer 993.7 mb
Air temperature 16.0 ° C
Visibility: greater than 10.8 NM
Dewpoint 10.4 ° C
Water temperature 14.0 ° C

Date/timePositionNaut miles runAvg speedWind from/ knotsBaromVisibWave heightAir tempDewpointWater temp
2017-May-23 12:00N 48°12' W 037°30'   200 / 13993.710.8 16.010.414.0
2017-May-20 21:02N 58°43' W 004°29'921.0
2017-May-20 20:38N 58°44' W 004°13'320.8
2017-May-20 20:30N 58°44' W 004°08'1020.7
2017-May-20 20:00N 58°43' W 003°48'1020.6
2017-May-20 19:30N 58°43' W 003°28'1020.2
2017-May-20 19:00N 58°43' W 003°09'816.9
2017-May-20 18:30N 58°38' W 002°56'1019.7
2017-May-20 18:00N 58°30' W 002°46'4720.8
2017-May-20 15:45N 57°59' W 001°38'40020.6
2017-May-19 20:19N 53°53' E 007°46'1215.9
2017-May-19 19:36N 53°50' E 008°05'217.5
2017-May-19 19:30N 53°49' E 008°07'917.9
2017-May-19 19:00N 53°43' E 008°18'916.5
2017-May-19 18:27N 53°37' E 008°29'3 6.6
2017-May-19 17:58N 53°34' E 008°32'0 0.1
2017-May-19 15:39N 53°35' E 008°32'0 0.1
2017-May-19 15:30N 53°35' E 008°32'0 0.0
2017-May-19 14:57N 53°35' E 008°32'0 0.0
2017-May-19 13:48N 53°35' E 008°32'0 0.0
2017-May-19 13:24N 53°35' E 008°32'0 0.0
2017-May-19 12:42N 53°35' E 008°32'0 0.0
2017-May-19 12:24N 53°35' E 008°32'0 0.0
2017-May-19 11:30N 53°35' E 008°32'0 0.0
2017-May-19 10:57N 53°35' E 008°32'0 0.0
2017-May-19 10:30N 53°35' E 008°32'0 0.0
2017-May-19 09:54N 53°35' E 008°32'0 0.0
2017-May-19 09:30N 53°35' E 008°32'0 0.0
2017-May-19 09:00N 53°35' E 008°32'0 0.0
2017-May-19 08:30N 53°35' E 008°32'0 0.0
2017-May-19 08:00N 53°35' E 008°32'0 0.0
2017-May-19 07:30N 53°35' E 008°32'0 0.0
2017-May-19 07:00N 53°35' E 008°32'0 0.0
2017-May-19 06:21N 53°35' E 008°32'0 0.0
2017-May-19 06:00N 53°35' E 008°32'0 0.0
2017-May-19 05:30N 53°35' E 008°32'0 0.0
2017-May-19 04:51N 53°35' E 008°32'0 0.0
2017-May-19 04:15N 53°35' E 008°32'0 0.0
2017-May-19 03:45N 53°35' E 008°32'0 0.0
2017-May-19 03:30N 53°35' E 008°32'0 0.0
2017-May-19 03:00N 53°35' E 008°32'0 0.1
2017-May-19 02:27N 53°35' E 008°32'0 0.0
2017-May-19 02:00N 53°35' E 008°32'0 0.0
2017-May-19 01:30N 53°35' E 008°32'0 0.0
2017-May-19 00:57N 53°35' E 008°32'0 0.0
2017-May-19 00:27N 53°35' E 008°32'0 0.0
2017-May-19 00:00N 53°35' E 008°32'0 0.0
2017-May-18 23:27N 53°35' E 008°32'0 0.1
2017-May-18 23:00N 53°35' E 008°32'0 0.0
2017-May-18 22:30N 53°35' E 008°32'0 0.0
2017-May-18 21:51N 53°35' E 008°32'0 1.4
2017-May-18 21:30N 53°35' E 008°32'6 9.7
2017-May-18 20:52N 53°39' E 008°24'514.1
2017-May-18 20:30N 53°43' E 008°18'714.1
2017-May-18 19:59N 53°48' E 008°09'714.7
2017-May-18 19:29N 53°51' E 007°58'102 4.7
2017-May-17 22:03N 53°31' E 005°10'114.1
2017-May-17 22:00N 53°31' E 005°09'714.0
2017-May-17 21:30N 53°28' E 004°58'714.1
2017-May-17 20:59N 53°25' E 004°47'713.7
2017-May-17 20:30N 53°20' E 004°40'714.7
2017-May-17 20:00N 53°14' E 004°33'714.7
2017-May-17 19:30N 53°07' E 004°27'714.3
2017-May-17 19:00N 53°01' E 004°22'713.9
2017-May-17 18:30N 52°55' E 004°17'713.7
2017-May-17 18:00N 52°49' E 004°11'713.7
2017-May-17 17:30N 52°43' E 004°05'713.4
2017-May-17 17:00N 52°37' E 003°60'612.9
2017-May-17 16:30N 52°31' E 003°55'2 3.0
2017-May-17 15:59N 52°30' E 003°54'2 3.3
2017-May-17 15:30N 52°28' E 003°54'612.1
2017-May-17 15:00N 52°22' E 003°52'612.4
2017-May-17 14:30N 52°16' E 003°52'1212.3
2017-May-17 13:30N 52°04' E 003°53'4 9.0
2017-May-17 13:00N 52°01' E 003°58'510.2
2017-May-17 12:30N 51°58' E 004°05'3 6.3
2017-May-17 12:00N 51°58' E 003°60'1 2.2
2017-May-17 11:30N 51°57' E 004°00'0 0.0
2017-May-17 11:00N 51°57' E 004°00'0 0.0
2017-May-17 10:30N 51°57' E 004°00'0 0.0
2017-May-17 10:00N 51°57' E 004°00'0 0.0
2017-May-17 09:30N 51°57' E 004°00'0 0.0
2017-May-17 09:00N 51°57' E 004°00'0 0.0
2017-May-17 08:30N 51°57' E 004°00'0 0.0
2017-May-17 08:00N 51°57' E 004°00'0 0.0
2017-May-17 07:30N 51°57' E 004°00'0 0.0
2017-May-17 07:00N 51°57' E 004°00'0 0.0
2017-May-17 06:30N 51°57' E 004°00'0 0.0
2017-May-17 06:00N 51°57' E 004°00'0 0.0
2017-May-17 05:24N 51°57' E 004°00'0 0.0
2017-May-17 05:00N 51°57' E 004°00'0 0.0
2017-May-17 04:30N 51°57' E 004°00'0 0.0
2017-May-17 04:00N 51°57' E 004°00'0 0.0
2017-May-17 03:30N 51°57' E 004°00'0 0.0
2017-May-17 03:00N 51°57' E 004°00'0 0.0
2017-May-17 02:30N 51°57' E 004°00'0 0.0
2017-May-17 01:57N 51°57' E 004°00'0 0.0
2017-May-17 01:30N 51°57' E 004°00'0 0.1
2017-May-17 01:00N 51°57' E 004°00'0 0.0
2017-May-17 00:30N 51°57' E 004°00'0 0.0
2017-May-17 00:00N 51°57' E 004°00'0 0.0
2017-May-16 23:30N 51°57' E 004°00'0 0.1
2017-May-16 23:00N 51°57' E 004°00'0 0.0
2017-May-16 22:27N 51°57' E 004°00'0 0.0
2017-May-16 22:00N 51°57' E 004°00'0 0.0
2017-May-16 21:30N 51°57' E 004°00'0 0.1
2017-May-16 21:00N 51°57' E 004°00'0 0.1
2017-May-16 20:30N 51°57' E 004°00'0 0.0
2017-May-16 20:00N 51°57' E 004°00'0 0.0
2017-May-16 19:30N 51°57' E 004°00'0 0.0
2017-May-16 19:00N 51°57' E 004°00'0 0.0
2017-May-16 18:30N 51°57' E 004°00'0 0.0
2017-May-16 18:00N 51°57' E 004°00'0 0.0
2017-May-16 17:30N 51°57' E 004°00'0 0.0
2017-May-16 17:00N 51°57' E 004°00'0 0.0
2017-May-16 16:30N 51°57' E 004°00'1 1.2
2017-May-16 16:00N 51°58' E 003°60'2 4.6
2017-May-16 15:30N 51°58' E 004°04'1 3.0
2017-May-16 15:00N 51°59' E 004°03'7 6.6
2017-May-16 14:00N 51°59' E 003°52'4 8.5
2017-May-16 13:31N 51°59' E 003°45'714.1
2017-May-16 13:01N 51°57' E 003°34'611.7
2017-May-16 12:29N 51°55' E 003°24'510.3
2017-May-16 12:00N 51°51' E 003°21'5 8.4
2017-May-16 11:28N 51°47' E 003°17'4 8.2
2017-May-16 11:00N 51°43' E 003°14'611.8
2017-May-16 10:29N 51°38' E 003°11'815.7
2017-May-16 10:00N 51°31' E 003°05'714.3
2017-May-16 09:31N 51°25' E 003°00'918.2
2017-May-16 09:00N 51°25' E 003°15'918.7
2017-May-16 08:30N 51°25' E 003°30'613.0
2017-May-16 08:00N 51°26' E 003°40'815.4
2017-May-16 07:30N 51°21' E 003°49'714.7
2017-May-16 07:00N 51°25' E 003°58'611.5
2017-May-16 06:30N 51°22' E 004°06'510.9
2017-May-16 06:00N 51°21' E 004°14'4 8.0
2017-May-16 05:31N 51°18' E 004°16'1 1.0
2017-May-16 04:58N 51°17' E 004°15'0 0.0
2017-May-16 04:30N 51°17' E 004°15'0 0.0
2017-May-16 04:00N 51°17' E 004°15'0 0.0
2017-May-16 03:30N 51°17' E 004°15'0 0.0
2017-May-16 03:00N 51°17' E 004°15'0 0.0
2017-May-16 02:30N 51°17' E 004°15'0 0.0
2017-May-16 02:00N 51°17' E 004°15'0 0.0
2017-May-16 01:30N 51°17' E 004°15'0 0.0
2017-May-16 01:00N 51°17' E 004°15'0 0.0
2017-May-16 00:30N 51°17' E 004°15'0 0.0
2017-May-16 00:00N 51°17' E 004°15'0 0.0
2017-May-15 23:30N 51°17' E 004°15'0 0.0
2017-May-15 23:00N 51°17' E 004°15'0 0.0
2017-May-15 22:30N 51°17' E 004°15'0 0.0
2017-May-15 22:00N 51°17' E 004°15'0 0.0
2017-May-15 21:30N 51°17' E 004°15'0 0.0
2017-May-15 21:00N 51°17' E 004°15'0 0.0
2017-May-15 20:30N 51°17' E 004°15'0 0.0
2017-May-15 20:00N 51°17' E 004°15'0 0.0
2017-May-15 19:30N 51°17' E 004°15'0 0.0
2017-May-15 19:00N 51°17' E 004°15'0 0.0
2017-May-15 18:30N 51°17' E 004°15'0 0.0
2017-May-15 18:00N 51°17' E 004°15'0 0.0
2017-May-15 17:30N 51°17' E 004°15'0 0.0
2017-May-15 17:00N 51°17' E 004°15'0 0.0
2017-May-15 16:30N 51°17' E 004°15'0 0.0
2017-May-15 16:00N 51°17' E 004°15'0 0.0
2017-May-15 15:30N 51°17' E 004°15'0 0.0
2017-May-15 15:00N 51°17' E 004°15'0 0.0
2017-May-15 14:30N 51°17' E 004°15'0 0.0
2017-May-15 13:30N 51°17' E 004°15'0 0.0
2017-May-15 13:00N 51°17' E 004°15'0 0.0
2017-May-15 12:30N 51°17' E 004°15'0 0.0
2017-May-15 12:00N 51°17' E 004°15'0 0.0
2017-May-15 11:30N 51°17' E 004°15'0 0.0
2017-May-15 11:00N 51°17' E 004°15'0 0.0
2017-May-15 10:30N 51°17' E 004°15'0 0.0
2017-May-15 10:00N 51°17' E 004°15'0 0.0
2017-May-15 09:30N 51°17' E 004°15'0 0.0
2017-May-15 08:58N 51°17' E 004°15'0 0.0
2017-May-15 08:30N 51°17' E 004°15'0 0.0
2017-May-15 08:00N 51°17' E 004°15'0 0.0
2017-May-15 07:30N 51°17' E 004°15'0 0.0
2017-May-15 07:00N 51°17' E 004°15'0 0.0
2017-May-15 06:30N 51°17' E 004°15'0 0.0
2017-May-15 06:00N 51°17' E 004°15'0 0.0
2017-May-15 05:30N 51°17' E 004°15'0 0.0
2017-May-15 05:00N 51°17' E 004°15'0 0.0
2017-May-15 04:30N 51°17' E 004°15'0 0.0
2017-May-15 04:00N 51°17' E 004°15'0 0.0
2017-May-15 03:30N 51°17' E 004°15'0 0.0
2017-May-15 03:00N 51°17' E 004°15'0 0.0
2017-May-15 02:30N 51°17' E 004°15'0 0.0
2017-May-15 02:00N 51°17' E 004°15'0 0.0
2017-May-15 01:30N 51°17' E 004°15'0 0.0
2017-May-15 01:00N 51°17' E 004°15'0 0.0
2017-May-15 00:30N 51°17' E 004°15'0 0.0
2017-May-15 00:00N 51°17' E 004°15'0 0.0
2017-May-14 23:30N 51°17' E 004°15'0 0.0
2017-May-14 23:00N 51°17' E 004°15'0 0.0
2017-May-14 22:30N 51°17' E 004°15'0 0.0
2017-May-14 22:00N 51°17' E 004°15'0 0.0
2017-May-14 21:30N 51°17' E 004°15'0 0.0
2017-May-14 21:00N 51°17' E 004°15'0 0.0
2017-May-14 20:30N 51°17' E 004°15'0 0.1
2017-May-14 20:00N 51°17' E 004°15'1 2.3
2017-May-14 19:30N 51°18' E 004°16'2 3.6
2017-May-14 19:00N 51°20' E 004°16'5 9.8
2017-May-14 18:30N 51°24' E 004°12'611.8
2017-May-14 18:00N 51°23' E 004°02'3 6.7
2017-May-14 17:30N 51°24' E 003°57'612.0
2017-May-14 17:01N 51°21' E 003°50'713.3
2017-May-14 16:30N 51°25' E 003°42'5 9.9
2017-May-14 16:01N 51°25' E 003°34'713.2
2017-May-14 15:30N 51°24' E 003°23'917.6
2017-May-14 15:00N 51°24' E 003°09'917.2
2017-May-14 14:30N 51°25' E 002°56'1515.4
2017-May-14 13:31N 51°22' E 002°32'1122.8
2017-May-14 13:01N 51°18' E 002°14'1122.9
2017-May-14 12:31N 51°12' E 001°59'1122.4
2017-May-14 12:01N 51°06' E 001°44'1122.6
2017-May-14 11:31N 50°57' E 001°32'1121.7
2017-May-14 11:01N 50°48' E 001°24'3121.6
2017-May-14 09:35N 50°27' E 000°47'223.1
2017-May-14 09:30N 50°27' E 000°44'1123.1
2017-May-14 09:00N 50°24' E 000°27'1122.9
2017-May-14 08:30N 50°21' E 000°10'1122.6
2017-May-14 08:00N 50°18' W 000°07'1222.3
2017-May-14 07:28N 50°15' W 000°26'1022.1
2017-May-14 07:00N 50°13' W 000°41'1121.5
2017-May-14 06:30N 50°11' W 000°58'2720.2
2017-May-14 05:09N 50°03' W 001°39'319.0
2017-May-14 05:00N 50°02' W 001°43'3118.7
2017-May-14 03:22N 49°54' W 002°29'719.2
2017-May-14 03:01N 49°52' W 002°39'1019.7
2017-May-14 02:31N 49°50' W 002°54'1020.2
2017-May-14 02:01N 49°47' W 003°09'1020.4
2017-May-14 01:31N 49°45' W 003°24'1020.6
2017-May-14 01:00N 49°43' W 003°40'1020.6
2017-May-14 00:30N 49°40' W 003°55'1120.7
2017-May-14 00:00N 49°38' W 004°11'1720.8
2017-May-13 23:11N 49°35' W 004°37'420.9
2017-May-13 22:59N 49°34' W 004°43'1021.1
2017-May-13 22:30N 49°32' W 004°59'  
Track history (hours):
 
Tides and Currents Weather Stations Pressure Air Temp Water Temp Dewpoint Dewpoint Depression Visibility Wind Speed Wind Dir Waves Ship Positions

Maersk Iowa

Owner: FARRELL LINES INC, Norfolk, VA. More information available from US FCC via Universal Licensing System and Coast Guard Vessel Documentation Center.

Last reported at 2017-May-23 12:00 UTC. Time now 2017-May-23 18:52 UTC.
Position N 48°12' W 037°30'.

Length 292 m; draft 13 m.

Type: Ship (hazmat cat A). MMSI: 367606000.

Wind from 200 at 13 knots

Barometer 993.7 mb
Air temperature 16.0 ° C
Visibility: greater than 10.8 NM
Dewpoint 10.4 ° C
Water temperature 14.0 ° C

Date/timePositionNaut miles runAvg speedWind from/ knotsBaromVisibWave heightAir tempDewpointWater temp
2017-May-23 12:00N 48°12' W 037°30'   200 / 13993.710.8 16.010.414.0
2017-May-20 21:02N 58°43' W 004°29'921.0
2017-May-20 20:38N 58°44' W 004°13'320.8
2017-May-20 20:30N 58°44' W 004°08'1020.7
2017-May-20 20:00N 58°43' W 003°48'1020.6
2017-May-20 19:30N 58°43' W 003°28'1020.2
2017-May-20 19:00N 58°43' W 003°09'816.9
2017-May-20 18:30N 58°38' W 002°56'1019.7
2017-May-20 18:00N 58°30' W 002°46'4720.8
2017-May-20 15:45N 57°59' W 001°38'40020.6
2017-May-19 20:19N 53°53' E 007°46'1215.9
2017-May-19 19:36N 53°50' E 008°05'217.5
2017-May-19 19:30N 53°49' E 008°07'917.9
2017-May-19 19:00N 53°43' E 008°18'916.5
2017-May-19 18:27N 53°37' E 008°29'3 6.6
2017-May-19 17:58N 53°34' E 008°32'0 0.1
2017-May-19 15:39N 53°35' E 008°32'0 0.1
2017-May-19 15:30N 53°35' E 008°32'0 0.0
2017-May-19 14:57N 53°35' E 008°32'0 0.0
2017-May-19 13:48N 53°35' E 008°32'0 0.0
2017-May-19 13:24N 53°35' E 008°32'0 0.0
2017-May-19 12:42N 53°35' E 008°32'0 0.0
2017-May-19 12:24N 53°35' E 008°32'0 0.0
2017-May-19 11:30N 53°35' E 008°32'0 0.0
2017-May-19 10:57N 53°35' E 008°32'0 0.0
2017-May-19 10:30N 53°35' E 008°32'0 0.0
2017-May-19 09:54N 53°35' E 008°32'0 0.0
2017-May-19 09:30N 53°35' E 008°32'0 0.0
2017-May-19 09:00N 53°35' E 008°32'0 0.0
2017-May-19 08:30N 53°35' E 008°32'0 0.0
2017-May-19 08:00N 53°35' E 008°32'0 0.0
2017-May-19 07:30N 53°35' E 008°32'0 0.0
2017-May-19 07:00N 53°35' E 008°32'0 0.0
2017-May-19 06:21N 53°35' E 008°32'0 0.0
2017-May-19 06:00N 53°35' E 008°32'0 0.0
2017-May-19 05:30N 53°35' E 008°32'0 0.0
2017-May-19 04:51N 53°35' E 008°32'0 0.0
2017-May-19 04:15N 53°35' E 008°32'0 0.0
2017-May-19 03:45N 53°35' E 008°32'0 0.0
2017-May-19 03:30N 53°35' E 008°32'0 0.0
2017-May-19 03:00N 53°35' E 008°32'0 0.1
2017-May-19 02:27N 53°35' E 008°32'0 0.0
2017-May-19 02:00N 53°35' E 008°32'0 0.0
2017-May-19 01:30N 53°35' E 008°32'0 0.0
2017-May-19 00:57N 53°35' E 008°32'0 0.0
2017-May-19 00:27N 53°35' E 008°32'0 0.0
2017-May-19 00:00N 53°35' E 008°32'0 0.0
2017-May-18 23:27N 53°35' E 008°32'0 0.1
2017-May-18 23:00N 53°35' E 008°32'0 0.0
2017-May-18 22:30N 53°35' E 008°32'0 0.0
2017-May-18 21:51N 53°35' E 008°32'0 1.4
2017-May-18 21:30N 53°35' E 008°32'6 9.7
2017-May-18 20:52N 53°39' E 008°24'514.1
2017-May-18 20:30N 53°43' E 008°18'714.1
2017-May-18 19:59N 53°48' E 008°09'714.7
2017-May-18 19:29N 53°51' E 007°58'102 4.7
2017-May-17 22:03N 53°31' E 005°10'114.1
2017-May-17 22:00N 53°31' E 005°09'714.0
2017-May-17 21:30N 53°28' E 004°58'714.1
2017-May-17 20:59N 53°25' E 004°47'713.7
2017-May-17 20:30N 53°20' E 004°40'714.7
2017-May-17 20:00N 53°14' E 004°33'714.7
2017-May-17 19:30N 53°07' E 004°27'714.3
2017-May-17 19:00N 53°01' E 004°22'713.9
2017-May-17 18:30N 52°55' E 004°17'713.7
2017-May-17 18:00N 52°49' E 004°11'713.7
2017-May-17 17:30N 52°43' E 004°05'713.4
2017-May-17 17:00N 52°37' E 003°60'612.9
2017-May-17 16:30N 52°31' E 003°55'2 3.0
2017-May-17 15:59N 52°30' E 003°54'2 3.3
2017-May-17 15:30N 52°28' E 003°54'612.1
2017-May-17 15:00N 52°22' E 003°52'612.4
2017-May-17 14:30N 52°16' E 003°52'1212.3
2017-May-17 13:30N 52°04' E 003°53'4 9.0
2017-May-17 13:00N 52°01' E 003°58'510.2
2017-May-17 12:30N 51°58' E 004°05'3 6.3
2017-May-17 12:00N 51°58' E 003°60'1 2.2
2017-May-17 11:30N 51°57' E 004°00'0 0.0
2017-May-17 11:00N 51°57' E 004°00'0 0.0
2017-May-17 10:30N 51°57' E 004°00'0 0.0
2017-May-17 10:00N 51°57' E 004°00'0 0.0
2017-May-17 09:30N 51°57' E 004°00'0 0.0
2017-May-17 09:00N 51°57' E 004°00'0 0.0
2017-May-17 08:30N 51°57' E 004°00'0 0.0
2017-May-17 08:00N 51°57' E 004°00'0 0.0
2017-May-17 07:30N 51°57' E 004°00'0 0.0
2017-May-17 07:00N 51°57' E 004°00'0 0.0
2017-May-17 06:30N 51°57' E 004°00'0 0.0
2017-May-17 06:00N 51°57' E 004°00'0 0.0
2017-May-17 05:24N 51°57' E 004°00'0 0.0
2017-May-17 05:00N 51°57' E 004°00'0 0.0
2017-May-17 04:30N 51°57' E 004°00'0 0.0
2017-May-17 04:00N 51°57' E 004°00'0 0.0
2017-May-17 03:30N 51°57' E 004°00'0 0.0
2017-May-17 03:00N 51°57' E 004°00'0 0.0
2017-May-17 02:30N 51°57' E 004°00'0 0.0
2017-May-17 01:57N 51°57' E 004°00'0 0.0
2017-May-17 01:30N 51°57' E 004°00'0 0.1
2017-May-17 01:00N 51°57' E 004°00'0 0.0
2017-May-17 00:30N 51°57' E 004°00'0 0.0
2017-May-17 00:00N 51°57' E 004°00'0 0.0
2017-May-16 23:30N 51°57' E 004°00'0 0.1
2017-May-16 23:00N 51°57' E 004°00'0 0.0
2017-May-16 22:27N 51°57' E 004°00'0 0.0
2017-May-16 22:00N 51°57' E 004°00'0 0.0
2017-May-16 21:30N 51°57' E 004°00'0 0.1
2017-May-16 21:00N 51°57' E 004°00'0 0.1
2017-May-16 20:30N 51°57' E 004°00'0 0.0
2017-May-16 20:00N 51°57' E 004°00'0 0.0
2017-May-16 19:30N 51°57' E 004°00'0 0.0
2017-May-16 19:00N 51°57' E 004°00'0 0.0
2017-May-16 18:30N 51°57' E 004°00'0 0.0
2017-May-16 18:00N 51°57' E 004°00'0 0.0
2017-May-16 17:30N 51°57' E 004°00'0 0.0
2017-May-16 17:00N 51°57' E 004°00'0 0.0
2017-May-16 16:30N 51°57' E 004°00'1 1.2
2017-May-16 16:00N 51°58' E 003°60'2 4.6
2017-May-16 15:30N 51°58' E 004°04'1 3.0
2017-May-16 15:00N 51°59' E 004°03'7 6.6
2017-May-16 14:00N 51°59' E 003°52'4 8.5
2017-May-16 13:31N 51°59' E 003°45'714.1
2017-May-16 13:01N 51°57' E 003°34'611.7
2017-May-16 12:29N 51°55' E 003°24'510.3
2017-May-16 12:00N 51°51' E 003°21'5 8.4
2017-May-16 11:28N 51°47' E 003°17'4 8.2
2017-May-16 11:00N 51°43' E 003°14'611.8
2017-May-16 10:29N 51°38' E 003°11'815.7
2017-May-16 10:00N 51°31' E 003°05'714.3
2017-May-16 09:31N 51°25' E 003°00'918.2
2017-May-16 09:00N 51°25' E 003°15'918.7
2017-May-16 08:30N 51°25' E 003°30'613.0
2017-May-16 08:00N 51°26' E 003°40'815.4
2017-May-16 07:30N 51°21' E 003°49'714.7
2017-May-16 07:00N 51°25' E 003°58'611.5
2017-May-16 06:30N 51°22' E 004°06'510.9
2017-May-16 06:00N 51°21' E 004°14'4 8.0
2017-May-16 05:31N 51°18' E 004°16'1 1.0
2017-May-16 04:58N 51°17' E 004°15'0 0.0
2017-May-16 04:30N 51°17' E 004°15'0 0.0
2017-May-16 04:00N 51°17' E 004°15'0 0.0
2017-May-16 03:30N 51°17' E 004°15'0 0.0
2017-May-16 03:00N 51°17' E 004°15'0 0.0
2017-May-16 02:30N 51°17' E 004°15'0 0.0
2017-May-16 02:00N 51°17' E 004°15'0 0.0
2017-May-16 01:30N 51°17' E 004°15'0 0.0
2017-May-16 01:00N 51°17' E 004°15'0 0.0
2017-May-16 00:30N 51°17' E 004°15'0 0.0
2017-May-16 00:00N 51°17' E 004°15'0 0.0
2017-May-15 23:30N 51°17' E 004°15'0 0.0
2017-May-15 23:00N 51°17' E 004°15'0 0.0
2017-May-15 22:30N 51°17' E 004°15'0 0.0
2017-May-15 22:00N 51°17' E 004°15'0 0.0
2017-May-15 21:30N 51°17' E 004°15'0 0.0
2017-May-15 21:00N 51°17' E 004°15'0 0.0
2017-May-15 20:30N 51°17' E 004°15'0 0.0
2017-May-15 20:00N 51°17' E 004°15'0 0.0
2017-May-15 19:30N 51°17' E 004°15'0 0.0
2017-May-15 19:00N 51°17' E 004°15'0 0.0
2017-May-15 18:30N 51°17' E 004°15'0 0.0
2017-May-15 18:00N 51°17' E 004°15'0 0.0
2017-May-15 17:30N 51°17' E 004°15'0 0.0
2017-May-15 17:00N 51°17' E 004°15'0 0.0
2017-May-15 16:30N 51°17' E 004°15'0 0.0
2017-May-15 16:00N 51°17' E 004°15'0 0.0
2017-May-15 15:30N 51°17' E 004°15'0 0.0
2017-May-15 15:00N 51°17' E 004°15'0 0.0
2017-May-15 14:30N 51°17' E 004°15'0 0.0
2017-May-15 13:30N 51°17' E 004°15'0 0.0
2017-May-15 13:00N 51°17' E 004°15'0 0.0
2017-May-15 12:30N 51°17' E 004°15'0 0.0
2017-May-15 12:00N 51°17' E 004°15'0 0.0
2017-May-15 11:30N 51°17' E 004°15'0 0.0
2017-May-15 11:00N 51°17' E 004°15'0 0.0
2017-May-15 10:30N 51°17' E 004°15'0 0.0
2017-May-15 10:00N 51°17' E 004°15'0 0.0
2017-May-15 09:30N 51°17' E 004°15'0 0.0
2017-May-15 08:58N 51°17' E 004°15'0 0.0
2017-May-15 08:30N 51°17' E 004°15'0 0.0
2017-May-15 08:00N 51°17' E 004°15'0 0.0
2017-May-15 07:30N 51°17' E 004°15'0 0.0
2017-May-15 07:00N 51°17' E 004°15'0 0.0
2017-May-15 06:30N 51°17' E 004°15'0 0.0
2017-May-15 06:00N 51°17' E 004°15'0 0.0
2017-May-15 05:30N 51°17' E 004°15'0 0.0
2017-May-15 05:00N 51°17' E 004°15'0 0.0
2017-May-15 04:30N 51°17' E 004°15'0 0.0
2017-May-15 04:00N 51°17' E 004°15'0 0.0
2017-May-15 03:30N 51°17' E 004°15'0 0.0
2017-May-15 03:00N 51°17' E 004°15'0 0.0
2017-May-15 02:30N 51°17' E 004°15'0 0.0
2017-May-15 02:00N 51°17' E 004°15'0 0.0
2017-May-15 01:30N 51°17' E 004°15'0 0.0
2017-May-15 01:00N 51°17' E 004°15'0 0.0
2017-May-15 00:30N 51°17' E 004°15'0 0.0
2017-May-15 00:00N 51°17' E 004°15'0 0.0
2017-May-14 23:30N 51°17' E 004°15'0 0.0
2017-May-14 23:00N 51°17' E 004°15'0 0.0
2017-May-14 22:30N 51°17' E 004°15'0 0.0
2017-May-14 22:00N 51°17' E 004°15'0 0.0
2017-May-14 21:30N 51°17' E 004°15'0 0.0
2017-May-14 21:00N 51°17' E 004°15'0 0.0
2017-May-14 20:30N 51°17' E 004°15'0 0.1
2017-May-14 20:00N 51°17' E 004°15'1 2.3
2017-May-14 19:30N 51°18' E 004°16'2 3.6
2017-May-14 19:00N 51°20' E 004°16'5 9.8
2017-May-14 18:30N 51°24' E 004°12'611.8
2017-May-14 18:00N 51°23' E 004°02'3 6.7
2017-May-14 17:30N 51°24' E 003°57'612.0
2017-May-14 17:01N 51°21' E 003°50'713.3
2017-May-14 16:30N 51°25' E 003°42'5 9.9
2017-May-14 16:01N 51°25' E 003°34'713.2
2017-May-14 15:30N 51°24' E 003°23'917.6
2017-May-14 15:00N 51°24' E 003°09'917.2
2017-May-14 14:30N 51°25' E 002°56'1515.4
2017-May-14 13:31N 51°22' E 002°32'1122.8
2017-May-14 13:01N 51°18' E 002°14'1122.9
2017-May-14 12:31N 51°12' E 001°59'1122.4
2017-May-14 12:01N 51°06' E 001°44'1122.6
2017-May-14 11:31N 50°57' E 001°32'1121.7
2017-May-14 11:01N 50°48' E 001°24'3121.6
2017-May-14 09:35N 50°27' E 000°47'223.1
2017-May-14 09:30N 50°27' E 000°44'1123.1
2017-May-14 09:00N 50°24' E 000°27'1122.9
2017-May-14 08:30N 50°21' E 000°10'1122.6
2017-May-14 08:00N 50°18' W 000°07'1222.3
2017-May-14 07:28N 50°15' W 000°26'1022.1
2017-May-14 07:00N 50°13' W 000°41'1121.5
2017-May-14 06:30N 50°11' W 000°58'2720.2
2017-May-14 05:09N 50°03' W 001°39'319.0
2017-May-14 05:00N 50°02' W 001°43'3118.7
2017-May-14 03:22N 49°54' W 002°29'719.2
2017-May-14 03:01N 49°52' W 002°39'1019.7
2017-May-14 02:31N 49°50' W 002°54'1020.2
2017-May-14 02:01N 49°47' W 003°09'1020.4
2017-May-14 01:31N 49°45' W 003°24'1020.6
2017-May-14 01:00N 49°43' W 003°40'1020.6
2017-May-14 00:30N 49°40' W 003°55'1120.7
2017-May-14 00:00N 49°38' W 004°11'1720.8
2017-May-13 23:11N 49°35' W 004°37'420.9
2017-May-13 22:59N 49°34' W 004°43'1021.1
2017-May-13 22:30N 49°32' W 004°59'  

Dump ship's entire track history